createdAt,value
2018-11-22T12:17:02.064Z,59.27
2018-11-22T12:21:05.897Z,58.63
2018-11-22T12:25:11.429Z,50.70
2018-11-22T12:29:15.123Z,59.10
2018-11-22T12:33:24.141Z,56.30
2018-11-22T12:37:31.753Z,55.77
2018-11-22T12:41:35.536Z,60.37
2018-11-22T12:45:39.706Z,57.90
2018-11-22T12:49:43.406Z,62.50
2018-11-22T12:53:47.106Z,57.37
2018-11-22T12:57:50.798Z,62.20
2018-11-22T13:01:54.479Z,56.53
2018-11-22T13:05:58.171Z,63.57
2018-11-22T13:10:01.959Z,65.03
2018-11-22T13:14:05.684Z,61.17
2018-11-22T13:18:09.392Z,58.37
2018-11-22T13:22:13.104Z,63.80
2018-11-22T13:26:16.749Z,62.80
2018-11-22T13:30:22.996Z,59.67
2018-11-22T13:34:26.699Z,62.90
2018-11-22T13:38:30.401Z,64.77
2018-11-22T13:42:34.093Z,60.87
2018-11-22T13:46:38.217Z,64.67
2018-11-22T13:50:42.268Z,63.07
2018-11-22T13:54:48.376Z,63.93
2018-11-22T13:58:52.084Z,70.17
2018-11-22T14:02:57.216Z,66.30
2018-11-22T14:07:00.924Z,68.23
2018-11-22T14:11:04.693Z,73.33
2018-11-22T14:15:11.350Z,62.37
2018-11-22T14:19:15.039Z,65.60
2018-11-22T14:23:18.735Z,61.20
2018-11-22T14:27:22.484Z,64.97
2018-11-22T14:31:26.243Z,68.47
2018-11-22T14:35:29.964Z,68.23
2018-11-22T14:39:33.651Z,70.50
2018-11-22T14:43:37.361Z,69.13
2018-11-22T14:49:25.765Z,69.37
2018-11-22T14:53:29.845Z,71.60
2018-11-22T14:57:33.605Z,83.03
2018-11-22T15:01:37.368Z,63.00
2018-11-22T15:05:41.080Z,70.47
2018-11-22T15:09:44.821Z,65.60
2018-11-22T15:13:48.449Z,75.37
2018-11-22T15:17:52.154Z,73.00
2018-11-22T15:21:55.837Z,69.63
2018-11-22T15:25:59.552Z,70.80
2018-11-22T15:30:03.560Z,72.80
2018-11-22T15:34:07.240Z,65.87
2018-11-22T15:38:10.965Z,81.10
2018-11-22T15:42:14.740Z,84.77
2018-11-22T15:46:18.461Z,81.23
2018-11-22T15:50:23.633Z,75.80
2018-11-22T15:54:27.357Z,81.33
2018-11-22T15:58:31.037Z,87.13
2018-11-22T16:02:34.784Z,84.33
2018-11-22T16:06:38.492Z,78.43
2018-11-22T16:10:42.209Z,84.13
2018-11-22T16:14:45.889Z,81.27
2018-11-22T16:18:49.573Z,84.07
2018-11-22T16:22:53.284Z,80.17
2018-11-22T16:26:57.090Z,84.90
2018-11-22T16:31:00.794Z,86.00
2018-11-22T16:35:05.072Z,80.80
2018-11-22T16:39:09.868Z,84.80
2018-11-22T16:43:13.614Z,83.53
2018-11-22T16:47:17.356Z,87.17
2018-11-22T16:51:21.067Z,80.77
2018-11-22T16:55:25.397Z,89.40
2018-11-22T16:59:29.082Z,92.50
2018-11-22T17:03:32.764Z,90.57
2018-11-22T17:07:36.522Z,89.80
2018-11-22T17:11:40.305Z,92.53
2018-11-22T17:15:44.037Z,88.83
2018-11-22T17:19:47.729Z,85.30
2018-11-22T17:23:51.420Z,93.90
2018-11-22T17:27:58.408Z,88.07
2018-11-22T17:32:02.054Z,83.87
2018-11-22T17:36:06.302Z,87.53
2018-11-22T17:40:14.501Z,82.03
2018-11-22T17:46:24.693Z,83.87
2018-11-22T17:53:43.589Z,88.73
2018-11-22T17:57:47.725Z,94.37
2018-11-22T18:01:51.380Z,84.20
2018-11-22T18:05:55.083Z,86.93
2018-11-22T18:09:58.864Z,85.37
2018-11-22T18:14:02.583Z,99.73
2018-11-22T18:18:06.320Z,94.20
2018-11-22T18:22:09.958Z,100.67
2018-11-22T18:26:13.618Z,93.97
2018-11-22T18:30:20.857Z,99.00
2018-11-22T18:34:24.504Z,98.43
2018-11-22T18:38:28.148Z,90.77
2018-11-22T18:42:31.917Z,89.50
2018-11-22T18:46:35.622Z,93.10
2018-11-22T18:50:40.126Z,87.27
2018-11-22T18:54:43.825Z,80.23
2018-11-22T18:58:47.560Z,88.03
2018-11-22T19:02:51.791Z,79.43
2018-11-22T19:06:55.582Z,89.30
2018-11-22T19:10:59.285Z,87.90
2018-11-22T19:15:02.973Z,93.83
2018-11-22T19:19:06.693Z,91.07
2018-11-22T19:23:11.123Z,92.03
2018-11-22T19:27:14.900Z,79.90
2018-11-22T19:31:18.583Z,90.00
2018-11-22T19:35:24.662Z,94.37
2018-11-22T19:39:28.347Z,84.83
2018-11-22T19:43:32.028Z,94.57
2018-11-22T19:47:35.816Z,94.77
2018-11-22T19:51:39.484Z,100.43
2018-11-22T19:55:43.212Z,83.90
2018-11-22T19:59:46.907Z,86.47
2018-11-22T20:03:50.589Z,83.93
2018-11-22T20:07:55.892Z,87.13
2018-11-22T20:11:59.587Z,90.83
2018-11-22T20:16:03.385Z,90.93
2018-11-22T20:24:13.829Z,89.00
2018-11-22T20:28:24.120Z,78.67
2018-11-22T20:32:27.878Z,80.70
2018-11-22T20:36:31.558Z,84.00
2018-11-22T20:40:35.806Z,78.20
2018-11-22T20:44:39.554Z,78.77
2018-11-22T20:48:43.371Z,81.97
2018-11-22T20:52:47.211Z,80.97
2018-11-22T20:56:50.900Z,69.77
2018-11-22T21:00:54.611Z,82.60
2018-11-22T21:04:58.307Z,79.40
2018-11-22T21:09:02.164Z,81.43
2018-11-22T21:13:05.946Z,78.97
2018-11-22T21:17:09.718Z,79.10
2018-11-22T21:21:13.432Z,82.53
2018-11-22T21:25:18.313Z,83.33
2018-11-22T21:29:22.037Z,86.00
2018-11-22T21:33:25.737Z,95.40
2018-11-22T21:37:29.436Z,87.37
2018-11-22T21:41:33.102Z,90.40
2018-11-22T21:45:36.843Z,78.90
2018-11-22T21:56:30.965Z,85.37
2018-11-22T22:00:40.867Z,80.67
2018-11-22T22:04:44.568Z,88.27
2018-11-22T22:09:42.064Z,71.10
2018-11-22T22:13:45.763Z,85.00
2018-11-22T22:17:49.608Z,73.83
2018-11-22T22:21:53.270Z,84.63
2018-11-22T22:25:56.956Z,84.20
2018-11-22T22:30:00.648Z,75.73
2018-11-22T22:34:04.348Z,86.67
2018-11-22T22:38:08.051Z,77.10
2018-11-22T22:44:22.522Z,83.17
2018-11-22T22:48:26.216Z,84.37
2018-11-22T22:52:29.920Z,76.73
2018-11-22T22:56:33.578Z,82.30
2018-11-22T23:04:51.806Z,84.63
2018-11-22T23:08:55.528Z,80.40
2018-11-22T23:12:59.775Z,75.53
2018-11-22T23:17:03.454Z,83.70
2018-11-22T23:21:07.159Z,84.87
2018-11-22T23:25:12.047Z,76.20
2018-11-22T23:29:15.746Z,86.63
2018-11-22T23:33:19.464Z,77.50
2018-11-22T23:37:23.424Z,85.57
2018-11-22T23:41:27.085Z,86.13
2018-11-22T23:45:31.954Z,60.93
2018-11-22T23:49:35.653Z,73.60
2018-11-22T23:53:39.348Z,79.80
2018-11-22T23:57:43.081Z,84.80
